Time;durP1;ratioP1;P1;durP2;ratioP2;P2;SDS_P1;SDS_P2;PMS_P1;PMS_P2;Temp;Humidity;BMP_temperature;BMP_pressure;BME280_temperature;BME280_humidity;BME280_pressure;Samples;Min_cycle;Max_cycle;Signal;HPM_P1;HPM_P2
2022/01/20 00:00:44;;;;;;;7.18;4.70;;;;;;;-0.18;100.00;93644.31;2103831;28;20119;-81
2022/01/20 00:01:47;;;;;;;6.93;4.53;;;;;;;-0.43;100.00;93627.91;2110472;27;20031;-81
2022/01/20 00:02:59;;;;;;;7.15;4.75;;;;;;;-0.31;100.00;93637.59;2106837;28;20028;-81
2022/01/20 00:04:00;;;;;;;6.53;4.70;;;;;;;-0.50;100.00;93635.56;2092850;28;20479;-79
2022/01/20 00:26:13;;;;;;;4.60;3.70;;;;;;;-1.04;100.00;93620.91;2115086;28;20389;-81
2022/01/20 00:27:22;;;;;;;5.65;3.67;;;;;;;-0.90;100.00;93617.94;2114725;28;20028;-81
2022/01/20 00:28:46;;;;;;;7.20;4.72;;;;;;;-0.85;100.00;93611.72;2102131;28;20020;-79
2022/01/20 00:31:49;;;;;;;4.47;3.38;;;;;;;-0.95;100.00;93602.44;2106277;28;20020;-82
2022/01/20 00:32:28;;;;;;;5.47;3.90;;;;;;;-0.82;100.00;93616.31;2092499;28;20040;-81
2022/01/20 00:33:40;;;;;;;3.80;3.40;;;;;;;-0.88;100.00;93605.28;2091099;28;20076;-81
2022/01/20 00:37:17;;;;;;;4.13;3.50;;;;;;;-0.81;100.00;93610.72;2099629;28;20054;-82
2022/01/20 00:38:19;;;;;;;4.93;3.97;;;;;;;-0.69;100.00;93611.78;2098981;28;20016;-79
2022/01/20 00:39:20;;;;;;;5.38;3.70;;;;;;;-0.60;100.00;93610.56;2106329;28;20086;-81
2022/01/20 00:40:23;;;;;;;6.05;3.42;;;;;;;-0.93;100.00;93613.34;2106482;28;20024;-80
2022/01/20 00:41:24;;;;;;;4.93;3.42;;;;;;;-1.09;100.00;93615.16;2106208;28;20028;-79
2022/01/20 00:42:26;;;;;;;4.70;3.75;;;;;;;-1.01;100.00;93622.09;2097854;28;20500;-82
2022/01/20 00:43:27;;;;;;;6.57;3.50;;;;;;;-0.88;100.00;93612.38;2081758;28;20031;-81
2022/01/20 00:44:28;;;;;;;5.68;3.47;;;;;;;-0.95;100.00;93618.19;2081815;28;20036;-79
2022/01/20 00:45:29;;;;;;;3.92;3.38;;;;;;;-1.02;100.00;93623.22;2097910;28;20017;-79
2022/01/20 00:46:30;;;;;;;3.92;3.47;;;;;;;-1.02;100.00;93618.72;2089670;28;20056;-80
2022/01/20 00:47:31;;;;;;;5.97;4.00;;;;;;;-1.10;100.00;93616.22;2089690;28;20021;-81
2022/01/20 00:48:35;;;;;;;5.30;3.80;;;;;;;-1.16;100.00;93613.06;2097910;28;20027;-80
2022/01/20 00:49:36;;;;;;;4.47;3.42;;;;;;;-1.02;100.00;93618.72;2106654;28;20466;-81
2022/01/20 00:50:38;;;;;;;5.97;3.78;;;;;;;-0.87;100.00;93609.44;2097986;28;20033;-79
2022/01/20 00:51:39;;;;;;;6.78;3.80;;;;;;;-0.91;100.00;93615.66;2081645;28;20024;-79
2022/01/20 00:52:40;;;;;;;5.78;4.18;;;;;;;-1.01;100.00;93609.00;2087533;28;20025;-80
2022/01/20 00:53:44;;;;;;;4.95;3.78;;;;;;;-0.88;100.00;93617.59;2089751;28;20035;-81
2022/01/20 00:54:45;;;;;;;3.97;3.58;;;;;;;-1.04;100.00;93605.19;2082341;28;20550;-82
2022/01/20 00:55:47;;;;;;;6.07;4.05;;;;;;;-0.77;100.00;93611.59;2098014;28;20028;-79
2022/01/20 00:56:48;;;;;;;6.28;3.95;;;;;;;-0.84;100.00;93607.97;2089718;28;20394;-80
2022/01/20 00:57:49;;;;;;;4.75;3.30;;;;;;;-0.91;100.00;93613.81;2089806;28;20053;-81
2022/01/20 00:58:50;;;;;;;5.38;3.63;;;;;;;-0.96;100.00;93613.28;2098061;28;20033;-81
2022/01/20 00:59:52;;;;;;;5.97;3.70;;;;;;;-0.59;100.00;93613.94;2114434;28;20090;-79
2022/01/20 01:00:54;;;;;;;4.45;3.33;;;;;;;-0.55;100.00;93612.19;2097786;28;20027;-80
2022/01/20 01:02:00;;;;;;;5.05;3.50;;;;;;;-0.65;100.00;93610.03;2089944;28;20095;-80
2022/01/20 01:03:01;;;;;;;5.80;3.70;;;;;;;-0.70;100.00;93610.25;2106240;28;20133;-80
2022/01/20 01:04:02;;;;;;;4.15;3.60;;;;;;;-0.45;100.00;93608.31;2089439;28;20021;-80
2022/01/20 01:05:05;;;;;;;6.28;3.78;;;;;;;-0.40;100.00;93600.19;2089708;28;20033;-81
2022/01/20 01:06:32;;;;;;;4.22;3.50;;;;;;;-0.32;100.00;93607.19;2090023;28;20430;-81
2022/01/20 01:07:43;;;;;;;6.50;3.72;;;;;;;-0.48;100.00;93598.47;2106325;28;20487;-79
2022/01/20 01:08:44;;;;;;;3.97;3.33;;;;;;;-0.57;100.00;93599.41;2103484;28;20058;-80
2022/01/20 01:09:45;;;;;;;3.60;3.10;;;;;;;-0.69;100.00;93602.06;2092266;28;20166;-79
2022/01/20 01:10:49;;;;;;;4.65;3.70;;;;;;;-0.42;100.00;93605.03;2091195;28;20425;-80
2022/01/20 01:11:53;;;;;;;5.70;3.90;;;;;;;-0.64;100.00;93608.94;2100337;28;20089;-81
2022/01/20 01:13:57;;;;;;;5.65;4.20;;;;;;;-0.90;100.00;93601.44;2100999;28;20032;-81
2022/01/20 01:15:00;;;;;;;5.38;4.00;;;;;;;-0.72;100.00;93607.19;2105569;28;20565;-80
2022/01/20 01:16:03;;;;;;;5.75;3.63;;;;;;;-0.80;100.00;93603.59;2098153;28;20032;-79
2022/01/20 01:22:13;;;;;;;3.30;2.85;;;;;;;-0.55;100.00;93620.06;2098574;28;20472;-81
2022/01/20 01:23:14;;;;;;;4.20;3.17;;;;;;;-0.41;100.00;93625.69;2091041;28;20048;-82
2022/01/20 01:24:15;;;;;;;3.88;3.17;;;;;;;-0.40;100.00;93631.72;2089406;28;20693;-80
2022/01/20 01:25:16;;;;;;;5.55;3.58;;;;;;;-0.46;100.00;93623.31;2097507;28;20508;-82
2022/01/20 01:26:20;;;;;;;3.88;3.20;;;;;;;-0.56;100.00;93618.53;2089344;28;20512;-80
2022/01/20 01:27:23;;;;;;;3.90;3.28;;;;;;;-0.51;100.00;93623.56;2097513;28;20024;-80
2022/01/20 01:28:29;;;;;;;3.83;3.13;;;;;;;-0.25;100.00;93617.88;2097499;28;20020;-81
2022/01/20 01:31:46;;;;;;;4.97;3.33;;;;;;;-0.69;100.00;93617.81;2105363;28;20055;-80
2022/01/20 01:32:50;;;;;;;3.80;2.90;;;;;;;-0.73;100.00;93624.06;2106038;28;20042;-81
2022/01/20 01:33:57;;;;;;;4.05;3.30;;;;;;;-0.46;100.00;93619.94;2098120;28;20139;-81
2022/01/20 01:35:01;;;;;;;3.38;3.08;;;;;;;-0.63;100.00;93618.31;2091081;28;20056;-82
2022/01/20 01:36:04;;;;;;;3.90;3.22;;;;;;;-0.68;100.00;93608.06;2090293;28;20088;-80
2022/01/20 01:37:14;;;;;;;4.93;3.38;;;;;;;-0.72;100.00;93615.06;2089996;28;20036;-81
2022/01/20 01:39:16;;;;;;;4.30;3.10;;;;;;;-0.87;100.00;93608.66;2097488;28;20441;-82
2022/01/20 01:40:17;;;;;;;3.80;3.05;;;;;;;-0.93;100.00;93604.72;2097670;28;20047;-81
2022/01/20 01:41:28;;;;;;;4.40;3.22;;;;;;;-0.97;100.00;93604.63;2097636;28;20085;-83
2022/01/20 01:42:36;;;;;;;2.88;2.55;;;;;;;-0.99;100.00;93600.81;2114073;28;20421;-80
2022/01/20 01:43:41;;;;;;;4.60;2.83;;;;;;;-1.07;100.00;93600.59;2097461;28;20091;-82
2022/01/20 01:44:42;;;;;;;3.78;2.78;;;;;;;-0.69;100.00;93599.44;2081976;28;20474;-81
2022/01/20 01:45:43;;;;;;;3.45;2.78;;;;;;;-0.86;100.00;93597.06;2087397;28;20067;-81
2022/01/20 01:46:44;;;;;;;3.10;2.78;;;;;;;-0.69;100.00;93593.41;2097671;28;20024;-82
2022/01/20 01:47:46;;;;;;;3.40;2.90;;;;;;;-0.74;100.00;93604.91;2105796;28;20028;-79
2022/01/20 01:48:47;;;;;;;4.78;2.55;;;;;;;-0.71;100.00;93603.47;2092447;28;20036;-81
2022/01/20 01:49:48;;;;;;;4.72;3.03;;;;;;;-0.76;100.00;93599.97;2097560;28;20099;-81
2022/01/20 01:50:49;;;;;;;3.28;2.53;;;;;;;-0.54;100.00;93601.34;2106162;28;20028;-81
2022/01/20 01:51:52;;;;;;;2.33;2.10;;;;;;;-0.52;100.00;93599.16;2105618;28;20024;-81
2022/01/20 01:52:55;;;;;;;3.92;2.50;;;;;;;-0.55;100.00;93599.06;2089743;28;20036;-81
2022/01/20 01:53:56;;;;;;;2.35;2.15;;;;;;;-0.53;100.00;93595.00;2089379;28;20021;-80
2022/01/20 01:54:57;;;;;;;2.80;2.30;;;;;;;-0.39;100.00;93599.88;2097541;28;20032;-79
2022/01/20 01:55:59;;;;;;;3.47;2.40;;;;;;;-0.57;100.00;93599.41;2097299;28;20028;-80
2022/01/20 01:57:05;;;;;;;3.25;2.20;;;;;;;-0.39;100.00;93596.50;2081315;28;20565;-81
2022/01/20 01:58:06;;;;;;;3.10;2.50;;;;;;;-0.53;100.00;93600.25;2098002;28;20028;-79
2022/01/20 01:59:08;;;;;;;2.65;2.20;;;;;;;-0.57;100.00;93591.53;2090489;28;20025;-80
2022/01/20 02:00:11;;;;;;;2.90;2.28;;;;;;;-0.56;100.00;93594.91;2089191;28;20095;-79
2022/01/20 02:01:12;;;;;;;2.88;2.25;;;;;;;-0.51;100.00;93597.31;2089490;28;20028;-78
2022/01/20 02:02:13;;;;;;;3.22;2.53;;;;;;;-0.59;100.00;93600.81;2089074;28;20044;-79
2022/01/20 02:03:15;;;;;;;2.17;1.92;;;;;;;-0.64;100.00;93601.81;2095617;28;20115;-80
2022/01/20 02:04:19;;;;;;;3.38;2.25;;;;;;;-0.64;100.00;93599.19;2105792;28;20019;-80
2022/01/20 02:05:21;;;;;;;3.25;2.08;;;;;;;-0.67;100.00;93593.84;2097394;28;20028;-79
2022/01/20 02:09:11;;;;;;;2.60;2.20;;;;;;;-0.32;100.00;93592.19;2105798;28;20031;-79
2022/01/20 02:19:27;;;;;;;3.05;2.05;;;;;;;-0.57;100.00;93585.50;2114138;28;20019;-80
2022/01/20 02:20:29;;;;;;;3.05;2.10;;;;;;;-0.51;100.00;93590.19;2105646;28;20074;-80
2022/01/20 02:21:31;;;;;;;1.95;1.80;;;;;;;-0.54;100.00;93590.84;2090196;28;20025;-79
2022/01/20 02:22:31;;;;;;;2.60;2.22;;;;;;;-0.41;100.00;93598.69;2097090;28;20487;-80
2022/01/20 02:23:33;;;;;;;2.25;2.03;;;;;;;-0.36;100.00;93596.56;2097252;28;20024;-81
2022/01/20 02:24:34;;;;;;;2.00;1.80;;;;;;;-0.22;100.00;93593.59;2107865;28;20034;-80
2022/01/20 02:25:37;;;;;;;3.45;2.08;;;;;;;-0.51;100.00;93592.81;2114156;28;20106;-80
2022/01/20 02:26:38;;;;;;;3.13;2.25;;;;;;;-0.52;100.00;93588.66;2114406;28;20392;-80
2022/01/20 02:27:39;;;;;;;1.95;1.70;;;;;;;-0.35;100.00;93589.44;2114104;28;20066;-80
2022/01/20 02:28:41;;;;;;;2.17;1.90;;;;;;;-0.57;100.00;93583.66;2105676;28;20167;-80
2022/01/20 02:29:45;;;;;;;1.73;1.58;;;;;;;-0.64;100.00;93586.06;2114317;28;20023;-80
2022/01/20 02:30:46;;;;;;;2.78;1.85;;;;;;;-0.55;100.00;93578.81;2114139;28;20023;-81
2022/01/20 02:31:47;;;;;;;2.10;1.90;;;;;;;-0.56;100.00;93577.28;2097286;28;20111;-79
2022/01/20 02:32:55;;;;;;;2.45;1.83;;;;;;;-0.61;100.00;93574.91;2105670;28;20030;-80
2022/01/20 02:34:05;;;;;;;3.28;1.92;;;;;;;-0.46;100.00;93583.16;2106546;28;20030;-79
2022/01/20 02:35:11;;;;;;;1.80;1.63;;;;;;;-0.54;100.00;93577.72;2108314;28;20024;-80
2022/01/20 02:36:18;;;;;;;1.98;1.70;;;;;;;-0.41;100.00;93572.41;2106287;28;20082;-79
2022/01/20 02:37:27;;;;;;;1.48;1.38;;;;;;;-0.36;100.00;93577.44;2107605;28;20372;-79
2022/01/20 02:38:49;;;;;;;1.80;1.58;;;;;;;-0.22;100.00;93580.44;2115102;28;20030;-81
2022/01/20 02:40:30;;;;;;;1.90;1.60;;;;;;;-0.19;100.00;93579.75;2122382;28;20031;-79
2022/01/20 02:45:57;;;;;;;1.48;1.38;;;;;;;-0.15;100.00;93583.25;2109853;28;20027;-82
2022/01/20 02:47:05;;;;;;;1.45;1.10;;;;;;;-0.36;100.00;93583.44;2106525;28;20039;-80
2022/01/20 02:48:16;;;;;;;1.25;1.15;;;;;;;-0.36;100.00;93587.94;2106437;28;20030;-81
2022/01/20 02:49:23;;;;;;;1.83;1.55;;;;;;;-0.41;100.00;93588.19;2098462;28;20107;-79
2022/01/20 02:50:40;;;;;;;1.52;1.40;;;;;;;-0.30;100.00;93589.25;2102837;28;20027;-80
2022/01/20 02:51:58;;;;;;;1.52;1.38;;;;;;;-0.33;100.00;93597.78;2107734;28;20051;-79
2022/01/20 02:53:04;;;;;;;1.40;1.30;;;;;;;-0.48;100.00;93593.22;2107903;28;20024;-79
2022/01/20 02:54:28;;;;;;;2.55;1.65;;;;;;;-0.56;100.00;93590.44;2098791;28;20087;-80
2022/01/20 02:55:35;;;;;;;1.67;1.40;;;;;;;-0.28;100.00;93592.28;2117531;28;20029;-81
2022/01/20 02:56:43;;;;;;;2.78;1.75;;;;;;;-0.35;100.00;93589.44;2113840;28;20345;-79
2022/01/20 02:57:51;;;;;;;1.98;1.48;;;;;;;-0.47;100.00;93586.91;2099102;28;20043;-80
2022/01/20 02:58:59;;;;;;;2.22;1.40;;;;;;;-0.46;100.00;93585.78;2107364;28;20400;-80
2022/01/20 03:00:09;;;;;;;1.67;1.35;;;;;;;-0.57;100.00;93588.91;2113827;28;20102;-79
2022/01/20 03:01:18;;;;;;;2.00;1.33;;;;;;;-0.43;100.00;93587.75;2098548;28;20103;-79
2022/01/20 03:02:24;;;;;;;1.63;1.40;;;;;;;-0.42;100.00;93586.66;2099130;28;20057;-80
2022/01/20 03:03:31;;;;;;;1.80;1.58;;;;;;;-0.49;100.00;93586.44;2097989;28;20017;-80
2022/01/20 03:04:43;;;;;;;2.00;1.50;;;;;;;-0.38;100.00;93587.53;2090597;28;20335;-80
2022/01/20 03:05:50;;;;;;;1.67;1.38;;;;;;;-0.59;100.00;93582.44;2100386;28;20048;-79
2022/01/20 03:06:57;;;;;;;2.10;1.60;;;;;;;-0.37;100.00;93586.41;2100362;28;20025;-81
2022/01/20 03:08:01;;;;;;;1.40;1.30;;;;;;;-0.27;100.00;93578.03;2099691;28;20028;-79
2022/01/20 03:09:06;;;;;;;1.60;1.40;;;;;;;-0.28;100.00;93587.03;2099230;28;20404;-80
2022/01/20 03:10:09;;;;;;;1.95;1.50;;;;;;;-0.46;100.00;93578.69;2104702;28;20023;-80
2022/01/20 03:11:14;;;;;;;1.50;1.40;;;;;;;-0.30;100.00;93573.47;2107302;28;20444;-81
2022/01/20 03:12:21;;;;;;;1.90;1.60;;;;;;;-0.34;100.00;93583.88;2107461;28;20326;-82
2022/01/20 03:13:26;;;;;;;2.20;1.60;;;;;;;-0.47;100.00;93573.78;2099660;28;20024;-79
2022/01/20 03:14:35;;;;;;;1.42;1.27;;;;;;;-0.44;100.00;93567.84;2100068;28;20065;-82
2022/01/20 03:15:41;;;;;;;2.42;1.33;;;;;;;-0.50;100.00;93567.31;2107052;28;20660;-80
2022/01/20 03:16:46;;;;;;;1.73;1.52;;;;;;;-0.48;100.00;93572.22;2102807;28;20465;-80
2022/01/20 03:17:52;;;;;;;2.53;1.45;;;;;;;-0.67;100.00;93568.34;2107741;28;20031;-80
2022/01/20 03:18:54;;;;;;;1.63;1.48;;;;;;;-0.64;100.00;93575.56;2117285;27;20019;-81
2022/01/20 03:19:55;;;;;;;1.30;1.20;;;;;;;-0.63;100.00;93566.59;2106912;28;20055;-81
2022/01/20 03:20:56;;;;;;;1.92;1.60;;;;;;;-0.78;100.00;93564.69;2098544;28;20823;-80
2022/01/20 03:21:58;;;;;;;1.73;1.50;;;;;;;-0.78;100.00;93564.69;2090408;28;20060;-81
2022/01/20 03:23:01;;;;;;;2.03;1.63;;;;;;;-0.65;100.00;93563.56;2090678;28;20029;-80
2022/01/20 03:24:02;;;;;;;1.60;1.40;;;;;;;-0.49;100.00;93573.31;2091033;28;20021;-81
2022/01/20 03:25:05;;;;;;;2.08;1.45;;;;;;;-0.52;100.00;93572.91;2107095;28;20020;-82
2022/01/20 03:26:09;;;;;;;1.45;1.33;;;;;;;-0.65;100.00;93576.66;2107086;28;20483;-81
2022/01/20 03:27:10;;;;;;;2.17;1.60;;;;;;;-0.61;100.00;93577.53;2093224;28;20056;-80
2022/01/20 03:28:11;;;;;;;1.95;1.42;;;;;;;-0.68;100.00;93577.34;2106996;28;20020;-82
2022/01/20 03:29:12;;;;;;;1.85;1.40;;;;;;;-0.49;100.00;93576.72;2098628;28;20047;-80
2022/01/20 03:30:13;;;;;;;2.42;1.52;;;;;;;-0.63;100.00;93581.56;2107172;28;20477;-81
2022/01/20 03:31:14;;;;;;;1.48;1.20;;;;;;;-0.63;100.00;93581.56;2115624;28;20027;-80
2022/01/20 03:32:15;;;;;;;1.52;1.10;;;;;;;-0.46;100.00;93586.56;2106957;28;20031;-81
2022/01/20 03:33:16;;;;;;;1.60;1.17;;;;;;;-0.56;100.00;93587.78;2098666;28;20033;-80
2022/01/20 03:34:21;;;;;;;1.92;1.30;;;;;;;-0.57;100.00;93585.50;2098666;28;20081;-80
2022/01/20 03:35:22;;;;;;;1.90;1.23;;;;;;;-0.52;100.00;93593.16;2098883;28;20595;-80
2022/01/20 03:36:23;;;;;;;1.30;1.20;;;;;;;-0.46;100.00;93586.56;2098617;28;20032;-81
2022/01/20 03:37:24;;;;;;;1.83;1.50;;;;;;;-0.54;100.00;93584.81;2106828;28;20016;-80
2022/01/20 03:38:25;;;;;;;1.90;1.25;;;;;;;-0.52;100.00;93587.91;2107042;28;20024;-80
2022/01/20 03:39:26;;;;;;;1.35;1.10;;;;;;;-0.41;100.00;93588.94;2106913;28;20020;-79
2022/01/20 03:40:31;;;;;;;0.90;0.90;;;;;;;-0.51;100.00;93592.81;2107056;28;20020;-81
2022/01/20 03:41:37;;;;;;;1.38;1.27;;;;;;;-0.63;100.00;93592.09;2103742;28;20034;-82
2022/01/20 03:42:38;;;;;;;1.15;1.05;;;;;;;-0.73;100.00;93588.06;2099927;28;20036;-82
2022/01/20 03:43:39;;;;;;;0.90;0.82;;;;;;;-0.74;100.00;93594.41;2106903;28;20062;-80
2022/01/20 03:44:42;;;;;;;1.52;1.00;;;;;;;-0.62;100.00;93599.63;2107012;28;20105;-79
2022/01/20 03:45:54;;;;;;;3.58;1.30;;;;;;;-0.55;100.00;93599.81;2115707;27;20456;-80
2022/01/20 03:46:58;;;;;;;1.88;1.30;;;;;;;-0.60;100.00;93592.19;2116745;27;20027;-80
2022/01/20 03:48:11;;;;;;;1.02;0.90;;;;;;;-0.63;100.00;93589.47;2115263;28;20023;-82
2022/01/20 03:49:26;;;;;;;1.95;1.20;;;;;;;-0.43;100.00;93590.38;2101778;28;20051;-78
2022/01/20 03:51:46;;;;;;;0.75;0.75;;;;;;;-0.23;100.00;93594.66;2117832;27;20027;-79
2022/01/20 03:52:48;;;;;;;0.65;0.65;;;;;;;-0.08;100.00;93595.81;2115418;28;20059;-79
2022/01/20 03:53:51;;;;;;;0.77;0.77;;;;;;;-0.16;100.00;93600.13;2115258;27;20027;-80
2022/01/20 03:54:53;;;;;;;1.35;0.80;;;;;;;-0.21;100.00;93592.47;2107021;28;20024;-81
2022/01/20 03:55:55;;;;;;;0.60;0.60;;;;;;;-0.41;100.00;93594.19;2098588;28;20030;-80
2022/01/20 03:56:56;;;;;;;0.75;0.75;;;;;;;-0.39;100.00;93591.25;2094033;28;20077;-82
2022/01/20 03:57:57;;;;;;;0.82;0.82;;;;;;;-0.46;100.00;93588.41;2106542;28;20024;-80
2022/01/20 03:58:58;;;;;;;0.93;0.70;;;;;;;-0.54;100.00;93582.97;2106776;28;20031;-81
2022/01/20 03:59:59;;;;;;;0.80;0.80;;;;;;;-0.57;100.00;93586.28;2106345;28;20047;-81
2022/01/20 04:01:00;;;;;;;2.30;0.60;;;;;;;-0.26;100.00;93585.59;2098510;28;20475;-80
2022/01/20 04:02:02;;;;;;;0.57;0.57;;;;;;;-0.39;100.00;93580.75;2106709;28;20069;-80
2022/01/20 04:03:03;;;;;;;0.60;0.60;;;;;;;-0.46;100.00;93581.31;2098356;28;20485;-79
2022/01/20 04:04:04;;;;;;;1.52;0.50;;;;;;;-0.50;100.00;93580.44;2090226;28;20028;-80
2022/01/20 04:05:05;;;;;;;0.47;0.47;;;;;;;-0.41;100.00;93582.94;2090194;28;20024;-80
2022/01/20 04:06:06;;;;;;;0.60;0.60;;;;;;;-0.45;100.00;93585.44;2090128;28;20031;-79
2022/01/20 04:07:08;;;;;;;1.15;0.80;;;;;;;-0.42;100.00;93582.16;2106819;28;20020;-80
2022/01/20 04:08:09;;;;;;;1.00;0.68;;;;;;;-0.49;100.00;93581.97;2106781;28;20016;-79
2022/01/20 04:09:10;;;;;;;0.60;0.60;;;;;;;-0.43;100.00;93585.13;2098108;28;20027;-80
2022/01/20 04:10:11;;;;;;;0.50;0.50;;;;;;;-0.38;100.00;93587.53;2098273;28;20017;-80
2022/01/20 04:11:15;;;;;;;0.60;0.60;;;;;;;-0.21;100.00;93599.59;2106792;28;20588;-81
2022/01/20 04:12:15;;;;;;;0.40;0.40;;;;;;;-0.09;100.00;93587.16;2090529;28;20110;-81
2022/01/20 04:13:18;;;;;;;0.75;0.63;;;;;;;-0.23;100.00;93599.91;2098329;28;20074;-80
2022/01/20 04:14:24;;;;;;;0.63;0.60;;;;;;;-0.29;100.00;93591.53;2098455;28;20020;-80
2022/01/20 04:15:29;;;;;;;1.25;0.77;;;;;;;-0.44;100.00;93596.72;2107681;27;20027;-80
2022/01/20 04:16:49;;;;;;;0.60;0.50;;;;;;;-0.56;100.00;93592.28;2106310;28;20124;-80
2022/01/20 04:17:55;;;;;;;0.40;0.40;;;;;;;-0.59;100.00;93579.81;2112146;27;20030;-81
2022/01/20 04:19:00;;;;;;;0.70;0.63;;;;;;;-0.61;100.00;93588.03;2107338;28;20419;-78
2022/01/20 04:20:02;;;;;;;0.98;0.82;;;;;;;-0.39;100.00;93591.25;2107399;27;20161;-80
2022/01/20 04:21:03;;;;;;;2.08;0.60;;;;;;;-0.40;100.00;93594.94;2115104;28;20024;-80
2022/01/20 04:22:05;;;;;;;0.50;0.50;;;;;;;-0.47;100.00;93597.41;2106487;28;20028;-80
2022/01/20 04:23:06;;;;;;;0.70;0.70;;;;;;;-0.53;100.00;93596.84;2098491;28;20086;-79
2022/01/20 04:24:07;;;;;;;0.82;0.82;;;;;;;-0.62;100.00;93589.13;2114904;28;20775;-79
2022/01/20 04:25:08;;;;;;;1.30;0.70;;;;;;;-0.44;100.00;93596.72;2106618;28;20032;-79
2022/01/20 04:26:09;;;;;;;1.63;0.70;;;;;;;-0.48;100.00;93594.00;2106557;28;20020;-79
2022/01/20 04:27:12;;;;;;;0.68;0.60;;;;;;;-0.58;100.00;93599.72;2106540;28;20020;-80
2022/01/20 04:28:14;;;;;;;3.95;0.80;;;;;;;-0.57;100.00;93593.38;2107227;27;20087;-81
2022/01/20 04:29:16;;;;;;;0.85;0.77;;;;;;;-0.41;100.00;93594.19;2114899;27;20027;-79
2022/01/20 04:30:17;;;;;;;1.30;0.77;;;;;;;-0.43;100.00;93600.88;2123564;27;20030;-81
2022/01/20 04:31:25;;;;;;;0.98;0.60;;;;;;;-0.52;100.00;93603.66;2123397;27;20479;-80
2022/01/20 04:32:31;;;;;;;0.70;0.70;;;;;;;-0.60;100.00;93592.19;2113588;28;20368;-80
2022/01/20 04:46:26;;;;;;;0.65;0.60;;;;;;;-0.73;100.00;93605.69;2097492;28;20055;-79
2022/01/20 04:48:12;;;;;;;1.25;0.80;;;;;;;-0.76;100.00;93599.97;2114861;28;20464;-80
2022/01/20 04:57:07;;;;;;;1.77;0.85;;;;;;;-0.41;100.00;93619.69;2108673;28;20809;-80
2022/01/20 04:58:08;;;;;;;0.73;0.63;;;;;;;-0.52;100.00;93627.28;2108464;27;20069;-81
2022/01/20 04:59:09;;;;;;;0.65;0.47;;;;;;;-0.47;100.00;93629.66;2106431;28;20032;-80
2022/01/20 05:00:10;;;;;;;0.60;0.60;;;;;;;-0.46;100.00;93623.31;2097769;28;20111;-79
2022/01/20 05:01:11;;;;;;;0.60;0.60;;;;;;;-0.55;100.00;93623.44;2108019;28;20024;-80
2022/01/20 05:02:13;;;;;;;0.50;0.50;;;;;;;-0.40;100.00;93623.84;2114588;27;20034;-80
2022/01/20 05:03:14;;;;;;;0.50;0.50;;;;;;;-0.06;100.00;93620.63;2114548;28;20165;-80
2022/01/20 05:04:22;;;;;;;2.28;0.60;;;;;;;-0.09;100.00;93626.59;2097936;28;20469;-80
2022/01/20 05:05:29;;;;;;;0.57;0.57;;;;;;;-0.07;100.00;93632.25;2100100;28;20024;-79
2022/01/20 05:06:32;;;;;;;0.85;0.50;;;;;;;-0.27;100.00;93630.56;2099536;28;20051;-80
2022/01/20 05:07:39;;;;;;;0.60;0.50;;;;;;;-0.33;100.00;93621.41;2114760;28;20042;-80
2022/01/20 05:08:45;;;;;;;0.50;0.50;;;;;;;-0.34;100.00;93623.28;2107044;28;20024;-79
2022/01/20 05:09:55;;;;;;;0.70;0.50;;;;;;;-0.36;100.00;93617.59;2099010;28;20394;-79
2022/01/20 05:11:03;;;;;;;0.50;0.50;;;;;;;-0.20;100.00;93612.38;2100282;28;20036;-80
2022/01/20 05:12:11;;;;;;;0.60;0.60;;;;;;;-0.21;100.00;93618.00;2098530;28;20020;-78
2022/01/20 05:13:22;;;;;;;0.57;0.50;;;;;;;-0.25;100.00;93615.25;2091824;28;20032;-80
2022/01/20 05:14:24;;;;;;;0.40;0.40;;;;;;;-0.26;100.00;93622.38;2099286;28;20028;-80
2022/01/20 05:15:31;;;;;;;0.50;0.50;;;;;;;-0.41;100.00;93627.56;2097954;28;20016;-80
2022/01/20 05:16:33;;;;;;;0.43;0.43;;;;;;;-0.34;100.00;93630.41;2106858;28;20162;-80
2022/01/20 05:17:34;;;;;;;0.47;0.47;;;;;;;-0.21;100.00;93631.88;2109494;28;20112;-78
2022/01/20 05:18:36;;;;;;;0.52;0.47;;;;;;;-0.42;100.00;93626.03;2097843;28;20025;-78
2022/01/20 05:19:37;;;;;;;0.50;0.50;;;;;;;-0.46;100.00;93631.19;2081180;28;20097;-79
2022/01/20 05:20:38;;;;;;;0.73;0.47;;;;;;;-0.55;100.00;93630.56;2097770;28;20044;-80
2022/01/20 05:21:39;;;;;;;0.60;0.60;;;;;;;-0.37;100.00;93638.94;2097696;28;20456;-82
2022/01/20 05:22:40;;;;;;;0.55;0.55;;;;;;;-0.42;100.00;93639.16;2081153;28;20018;-82
2022/01/20 05:23:40;;;;;;;0.47;0.40;;;;;;;-0.54;100.00;93645.22;2081248;28;20029;-81
2022/01/20 05:24:41;;;;;;;0.50;0.50;;;;;;;-0.66;100.00;93634.72;2081228;28;20025;-82
2022/01/20 05:25:45;;;;;;;0.50;0.50;;;;;;;-0.71;100.00;93640.97;2089476;28;20355;-79
2022/01/20 05:26:46;;;;;;;0.68;0.68;;;;;;;-0.65;100.00;93631.81;2097929;28;20038;-82
2022/01/20 05:27:47;;;;;;;0.50;0.50;;;;;;;-0.71;100.00;93630.47;2095375;28;20036;-80
2022/01/20 05:28:54;;;;;;;1.23;0.65;;;;;;;-0.58;100.00;93628.59;2088723;28;20111;-80
2022/01/20 05:29:55;;;;;;;0.85;0.50;;;;;;;-0.61;100.00;93631.91;2098286;28;20025;-80
2022/01/20 05:30:56;;;;;;;0.60;0.50;;;;;;;-0.63;100.00;93634.09;2089489;28;20793;-80
2022/01/20 05:31:58;;;;;;;0.40;0.40;;;;;;;-0.70;100.00;93626.78;2105721;28;20084;-80
2022/01/20 05:33:00;;;;;;;0.90;0.50;;;;;;;-0.58;100.00;93624.09;2114145;28;20015;-79
2022/01/20 05:34:02;;;;;;;0.90;0.60;;;;;;;-0.52;100.00;93627.28;2105731;28;20023;-80
2022/01/20 05:35:04;;;;;;;1.15;0.80;;;;;;;-0.66;100.00;93630.28;2105801;28;20377;-81
2022/01/20 05:36:10;;;;;;;1.98;0.73;;;;;;;-0.71;100.00;93630.47;2113658;28;20030;-80
2022/01/20 05:37:11;;;;;;;0.98;0.85;;;;;;;-0.60;100.00;93628.19;2097967;28;20481;-80
2022/01/20 05:38:12;;;;;;;1.48;1.27;;;;;;;-0.75;100.00;93619.13;2089104;28;20108;-79
2022/01/20 05:39:13;;;;;;;2.35;1.40;;;;;;;-0.85;100.00;93622.97;2095549;28;20021;-78
2022/01/20 05:40:14;;;;;;;0.75;0.75;;;;;;;-0.81;100.00;93618.59;2101656;28;20664;-78
2022/01/20 05:41:15;;;;;;;1.67;1.00;;;;;;;-0.69;100.00;93623.06;2094441;28;20035;-78
2022/01/20 05:42:19;;;;;;;2.17;1.98;;;;;;;-0.59;100.00;93617.34;2095856;28;20028;-79
2022/01/20 05:43:20;;;;;;;0.80;0.80;;;;;;;-0.58;100.00;93624.09;2104359;28;20099;-80
2022/01/20 05:44:27;;;;;;;1.40;0.85;;;;;;;-0.72;100.00;93621.09;2104015;28;20811;-78
2022/01/20 05:45:28;;;;;;;1.33;0.90;;;;;;;-0.72;100.00;93615.84;2107166;28;20503;-79
2022/01/20 05:46:36;;;;;;;0.70;0.68;;;;;;;-0.67;100.00;93614.84;2095733;28;20024;-80
2022/01/20 05:47:43;;;;;;;0.40;0.40;;;;;;;-0.58;100.00;93610.22;2098133;28;20481;-81
2022/01/20 05:48:48;;;;;;;1.33;0.50;;;;;;;-0.48;100.00;93619.47;2105132;28;20027;-80
2022/01/20 05:49:49;;;;;;;0.93;0.50;;;;;;;-0.53;100.00;93617.84;2096473;28;20177;-80
2022/01/20 05:50:49;;;;;;;0.73;0.68;;;;;;;-0.58;100.00;93616.22;2087682;28;20071;-80
2022/01/20 05:51:53;;;;;;;1.77;0.70;;;;;;;-0.58;100.00;93621.47;2095536;28;20036;-79
2022/01/20 05:52:54;;;;;;;0.65;0.65;;;;;;;-0.47;100.00;93618.41;2104522;28;20123;-79
2022/01/20 05:53:55;;;;;;;1.33;0.50;;;;;;;-0.55;100.00;93610.31;2108988;28;20028;-79
2022/01/20 05:54:56;;;;;;;0.77;0.50;;;;;;;-0.62;100.00;93612.75;2104599;28;20058;-81
2022/01/20 05:56:00;;;;;;;3.53;0.63;;;;;;;-0.59;100.00;93614.72;2095877;28;20111;-80
2022/01/20 05:57:01;;;;;;;0.70;0.70;;;;;;;-0.52;100.00;93614.16;2096826;28;20146;-80
2022/01/20 05:58:05;;;;;;;0.70;0.50;;;;;;;-0.63;100.00;93621.72;2095956;28;20152;-81
2022/01/20 05:59:06;;;;;;;0.60;0.60;;;;;;;-0.53;100.00;93628.34;2096595;28;20020;-81
2022/01/20 06:00:11;;;;;;;0.60;0.50;;;;;;;-0.54;100.00;93627.59;2088330;28;20067;-81
2022/01/20 06:01:12;;;;;;;0.98;0.73;;;;;;;-0.61;100.00;93631.91;2089506;28;20021;-80
2022/01/20 06:02:27;;;;;;;0.60;0.60;;;;;;;-0.59;100.00;93637.56;2096753;28;20029;-82
2022/01/20 06:03:37;;;;;;;0.60;0.60;;;;;;;-0.62;100.00;93640.84;2106504;28;20032;-79
2022/01/20 06:04:38;;;;;;;0.50;0.50;;;;;;;-0.75;100.00;93634.84;2104868;28;20047;-78
2022/01/20 06:05:40;;;;;;;0.77;0.75;;;;;;;-0.78;100.00;93638.16;2089915;28;20025;-80
2022/01/20 06:06:44;;;;;;;1.02;0.88;;;;;;;-0.81;100.00;93636.19;2105155;28;20046;-80
2022/01/20 06:07:45;;;;;;;0.82;0.82;;;;;;;-0.76;100.00;93630.72;2097134;28;20518;-79
2022/01/20 06:08:47;;;;;;;0.57;0.50;;;;;;;-0.66;100.00;93626.84;2088549;28;20036;-80
2022/01/20 06:09:48;;;;;;;0.68;0.60;;;;;;;-0.64;100.00;93620.19;2088637;28;20031;-80
2022/01/20 06:10:49;;;;;;;0.50;0.50;;;;;;;-0.63;100.00;93624.34;2103921;28;20607;-81